Time;durP1;ratioP1;P1;durP2;ratioP2;P2;SDS_P1;SDS_P2;PMS_P1;PMS_P2;Temp;Humidity;BMP_temperature;BMP_pressure;BME280_temperature;BME280_humidity;BME280_pressure;Samples;Min_cycle;Max_cycle;Signal;HPM_P1;HPM_P2
2022/10/23 00:01:51;;;;;;;9.53;4.37;;;;;;;15.99;53.46;99721.84;4113391;28;20332;-65
2022/10/23 00:03:55;;;;;;;6.67;4.03;;;;;;;15.11;54.47;99750.41;4101284;28;20329;-66
2022/10/23 00:05:57;;;;;;;6.90;3.63;;;;;;;14.99;54.88;99738.69;4115932;28;20275;-65
2022/10/23 00:07:59;;;;;;;6.63;3.90;;;;;;;14.82;55.31;99737.53;4129848;28;20269;-65
2022/10/23 00:10:01;;;;;;;5.70;4.13;;;;;;;15.75;53.65;99680.31;4114211;28;20496;-65
2022/10/23 00:12:03;;;;;;;5.83;4.00;;;;;;;16.13;52.73;99670.41;4117205;28;20331;-65
2022/10/23 00:14:07;;;;;;;5.37;4.20;;;;;;;15.76;53.19;99718.91;4129539;28;20515;-68
2022/10/23 00:16:09;;;;;;;7.47;4.63;;;;;;;15.72;53.16;99709.63;4119493;28;20248;-65
2022/10/23 00:18:10;;;;;;;9.53;4.30;;;;;;;16.12;52.59;99683.06;4116265;28;20763;-65
2022/10/23 00:20:13;;;;;;;8.40;4.50;;;;;;;15.67;53.28;99711.13;4121927;28;20200;-66
2022/10/23 00:22:15;;;;;;;5.47;4.20;;;;;;;15.35;53.68;99721.03;4150033;28;20244;-65
2022/10/23 00:24:16;;;;;;;6.07;4.17;;;;;;;15.45;53.63;99705.25;4120017;28;20243;-65
2022/10/23 00:26:19;;;;;;;6.53;4.37;;;;;;;15.49;53.65;99686.75;4100139;28;20688;-67
2022/10/23 00:28:20;;;;;;;8.30;4.30;;;;;;;16.76;51.92;99631.44;4119993;28;20548;-65
2022/10/23 00:30:22;;;;;;;6.67;4.40;;;;;;;18.14;48.64;99638.59;4137181;28;20259;-68
2022/10/23 00:32:24;;;;;;;7.67;4.30;;;;;;;18.48;47.44;99660.44;4119273;28;20256;-65
2022/10/23 00:34:26;;;;;;;8.03;3.73;;;;;;;19.14;46.40;99642.72;4135429;28;20228;-67
2022/10/23 00:36:28;;;;;;;10.70;4.20;;;;;;;19.17;45.68;99663.91;4133645;28;20228;-67
2022/10/23 00:38:29;;;;;;;7.23;3.97;;;;;;;16.81;49.55;99780.19;4139743;28;20278;-67
2022/10/23 00:40:31;;;;;;;5.93;3.77;;;;;;;15.91;51.88;99773.38;4127824;28;20263;-68
2022/10/23 00:42:33;;;;;;;7.10;4.00;;;;;;;15.59;52.32;99759.09;4149253;28;20266;-65
2022/10/23 00:44:34;;;;;;;5.73;4.10;;;;;;;15.69;52.90;99722.50;4151312;28;20306;-68
2022/10/23 00:46:38;;;;;;;8.00;4.10;;;;;;;16.79;50.94;99682.34;4136804;28;20987;-67
2022/10/23 00:48:39;;;;;;;8.77;4.00;;;;;;;16.99;50.06;99709.94;4121478;28;20275;-66
2022/10/23 00:50:42;;;;;;;9.43;4.10;;;;;;;17.88;48.77;99665.06;4122810;28;20267;-68
2022/10/23 00:52:52;;;;;;;4.63;3.77;;;;;;;18.81;46.56;99663.25;4110608;28;20261;-68
2022/10/23 00:54:55;;;;;;;8.27;3.50;;;;;;;18.01;47.22;99756.88;4117427;28;20225;-67
2022/10/23 00:57:01;;;;;;;7.97;3.87;;;;;;;18.04;47.66;99723.13;4130018;28;20700;-65
2022/10/23 00:59:02;;;;;;;8.60;3.63;;;;;;;18.45;46.59;99722.13;4126709;28;20275;-64
2022/10/23 01:01:15;;;;;;;5.87;3.23;;;;;;;18.68;45.99;99719.63;4126239;28;20233;-65
2022/10/23 01:03:20;;;;;;;6.30;3.40;;;;;;;17.53;48.45;99758.66;4131796;28;20258;-65
2022/10/23 01:05:29;;;;;;;6.13;3.07;;;;;;;17.44;48.87;99749.22;4120907;28;20260;-66
2022/10/23 01:08:14;;;;;;;8.67;3.30;;;;;;;18.12;47.63;99706.50;4124608;28;20263;-65
2022/10/23 01:10:27;;;;;;;7.07;3.67;;;;;;;18.09;47.20;99732.16;4116855;28;20691;-66
2022/10/23 01:12:54;;;;;;;7.10;3.50;;;;;;;18.30;46.89;99727.22;4134011;28;20267;-67
2022/10/23 01:15:01;;;;;;;7.77;3.47;;;;;;;18.66;46.32;99698.19;4138581;28;20459;-66
2022/10/23 01:17:15;;;;;;;6.57;3.60;;;;;;;17.62;47.97;99764.56;4122697;28;21818;-68
2022/10/23 01:19:36;;;;;;;6.33;3.40;;;;;;;18.99;45.79;99673.09;4125733;28;20738;-68
2022/10/23 01:21:47;;;;;;;6.07;3.67;;;;;;;18.64;46.07;99713.84;4121901;28;20271;-68
2022/10/23 01:24:00;;;;;;;7.03;3.50;;;;;;;17.28;48.45;99752.59;4124190;28;20240;-68
2022/10/23 01:26:04;;;;;;;7.17;3.60;;;;;;;17.55;47.77;99725.97;4125349;28;20530;-68
2022/10/23 01:28:10;;;;;;;10.87;4.40;;;;;;;17.60;47.83;99728.81;4127881;28;20213;-68
2022/10/23 01:30:15;;;;;;;8.43;3.10;;;;;;;18.07;47.22;99723.47;4136994;28;20224;-64
2022/10/23 01:32:39;;;;;;;4.83;3.20;;;;;;;18.42;46.41;99700.13;4125009;28;20247;-66
2022/10/23 01:34:49;;;;;;;7.20;3.67;;;;;;;18.84;45.68;99686.31;4127531;28;20309;-68
2022/10/23 01:36:52;;;;;;;6.30;3.60;;;;;;;17.71;46.79;99756.97;4107620;28;20519;-68
2022/10/23 01:39:23;;;;;;;4.93;2.80;;;;;;;17.49;47.99;99745.81;4127849;28;20233;-66
2022/10/23 01:41:45;;;;;;;5.50;3.40;;;;;;;19.02;45.30;99667.19;4112727;28;20264;-68
2022/10/23 01:43:55;;;;;;;7.53;3.13;;;;;;;18.97;45.27;99693.38;4139225;28;20834;-66
2022/10/23 01:46:02;;;;;;;10.33;3.00;;;;;;;18.38;46.25;99721.44;4126938;28;20229;-67
2022/10/23 01:48:07;;;;;;;10.93;3.03;;;;;;;18.15;46.48;99743.09;4130721;28;20225;-66
2022/10/23 01:50:12;;;;;;;5.90;3.00;;;;;;;18.43;46.35;99715.31;4125910;28;20208;-65
2022/10/23 01:52:17;;;;;;;5.17;2.87;;;;;;;17.69;47.13;99748.25;4156121;28;20228;-66
2022/10/23 01:54:23;;;;;;;4.87;2.93;;;;;;;16.85;48.77;99737.34;4135470;28;20247;-67
2022/10/23 01:56:34;;;;;;;5.23;3.43;;;;;;;16.72;48.92;99741.84;4106811;28;20339;-65
2022/10/23 01:58:38;;;;;;;8.77;3.50;;;;;;;17.65;47.14;99726.25;4126864;28;20377;-65
2022/10/23 02:00:42;;;;;;;9.17;3.67;;;;;;;17.77;47.15;99692.97;4133799;28;20244;-68
2022/10/23 02:02:48;;;;;;;11.80;4.00;;;;;;;17.17;47.82;99733.41;4125835;28;20240;-65
2022/10/23 02:04:57;;;;;;;7.23;3.90;;;;;;;17.44;47.24;99714.06;4105146;28;20261;-68
2022/10/23 02:06:59;;;;;;;6.70;3.63;;;;;;;16.86;48.59;99734.41;4133456;28;20406;-65
2022/10/23 02:09:01;;;;;;;4.43;3.50;;;;;;;17.39;47.86;99692.28;4126198;28;20927;-65
2022/10/23 02:11:08;;;;;;;5.43;3.13;;;;;;;17.65;47.19;99668.63;4112857;28;20740;-65
2022/10/23 02:13:24;;;;;;;4.13;3.17;;;;;;;17.20;47.79;99704.25;4121569;28;20913;-65
2022/10/23 02:15:31;;;;;;;5.30;3.60;;;;;;;16.80;48.90;99713.69;4120224;28;20239;-65
2022/10/23 02:17:36;;;;;;;5.67;3.27;;;;;;;16.79;48.59;99707.47;4122412;28;20232;-65
2022/10/23 02:19:42;;;;;;;6.67;3.17;;;;;;;17.23;48.11;99676.75;4117540;28;20271;-65
2022/10/23 02:22:02;;;;;;;5.30;3.20;;;;;;;17.70;47.27;99649.81;4123960;28;20327;-66
2022/10/23 02:24:16;;;;;;;4.87;3.30;;;;;;;17.63;46.77;99692.34;4103870;28;20236;-65
2022/10/23 02:26:30;;;;;;;5.50;3.13;;;;;;;18.25;46.49;99635.00;4125160;28;20264;-67
2022/10/23 02:28:45;;;;;;;6.07;3.30;;;;;;;18.81;45.66;99628.00;4129106;28;20294;-66
2022/10/23 02:30:49;;;;;;;4.23;2.83;;;;;;;17.96;46.28;99707.22;4115220;28;20892;-66
2022/10/23 02:32:53;;;;;;;5.57;3.00;;;;;;;16.88;47.88;99734.19;4157308;28;20236;-66
2022/10/23 02:34:55;;;;;;;7.47;3.20;;;;;;;17.02;47.96;99713.22;4149449;28;20252;-68
2022/10/23 02:36:57;;;;;;;4.73;3.17;;;;;;;16.13;49.56;99718.97;4128484;28;20347;-65
2022/10/23 02:38:59;;;;;;;7.10;3.70;;;;;;;16.48;49.35;99705.75;4126712;28;20793;-68
2022/10/23 02:41:06;;;;;;;5.83;3.70;;;;;;;16.20;50.46;99699.00;4119569;28;20573;-67
2022/10/23 02:43:23;;;;;;;6.63;3.97;;;;;;;15.51;51.87;99696.25;4122767;28;20255;-67
2022/10/23 02:45:55;;;;;;;5.13;3.93;;;;;;;15.46;52.34;99685.31;4120321;28;20303;-66
2022/10/23 02:48:08;;;;;;;7.00;3.77;;;;;;;16.48;50.31;99634.72;4126278;28;20257;-66
2022/10/23 02:50:42;;;;;;;8.73;4.17;;;;;;;16.44;50.08;99643.28;4126133;28;20263;-64
2022/10/23 02:52:56;;;;;;;8.23;4.17;;;;;;;16.16;50.44;99651.06;4133617;28;20319;-68
2022/10/23 02:55:21;;;;;;;6.60;3.70;;;;;;;16.37;50.36;99634.44;4122885;28;20932;-65
2022/10/23 02:57:50;;;;;;;7.00;3.70;;;;;;;16.57;50.26;99609.06;4126397;28;20258;-66
2022/10/23 03:00:04;;;;;;;7.37;4.00;;;;;;;16.37;50.55;99622.81;4119031;28;20731;-67
2022/10/23 03:02:16;;;;;;;10.73;3.97;;;;;;;16.72;49.78;99601.38;4115894;28;20431;-66
2022/10/23 03:04:22;;;;;;;5.23;3.47;;;;;;;15.34;52.08;99662.81;4155227;28;20631;-65
2022/10/23 03:06:24;;;;;;;5.03;3.37;;;;;;;14.92;53.01;99657.88;4111507;28;20263;-65
2022/10/23 03:08:26;;;;;;;10.30;4.13;;;;;;;14.85;53.53;99640.94;4125845;28;20259;-65
2022/10/23 03:10:27;;;;;;;10.27;4.23;;;;;;;15.02;53.28;99626.97;4127389;28;20595;-64
2022/10/23 03:12:29;;;;;;;6.53;4.33;;;;;;;15.73;52.24;99595.28;4137244;28;20255;-65
2022/10/23 03:14:31;;;;;;;7.53;4.90;;;;;;;14.88;53.43;99640.50;4136799;28;20236;-67
2022/10/23 03:16:32;;;;;;;6.50;3.67;;;;;;;15.46;52.42;99603.59;4131839;28;20268;-65
2022/10/23 03:18:34;;;;;;;8.67;4.00;;;;;;;15.12;53.26;99621.91;4130538;28;20260;-68
2022/10/23 03:20:36;;;;;;;5.27;4.23;;;;;;;16.15;51.23;99565.75;4121733;28;20416;-67
2022/10/23 03:22:38;;;;;;;7.10;4.43;;;;;;;16.07;51.44;99586.56;4129331;28;20521;-67
2022/10/23 03:24:40;;;;;;;9.57;4.20;;;;;;;16.10;51.24;99584.50;4129637;28;20240;-67
2022/10/23 03:26:42;;;;;;;10.20;4.50;;;;;;;15.48;52.29;99625.75;4153319;28;20332;-68
2022/10/23 03:28:44;;;;;;;8.93;4.10;;;;;;;14.45;54.60;99645.69;4131965;28;20561;-65
2022/10/23 03:30:45;;;;;;;5.50;3.47;;;;;;;15.13;53.53;99602.00;4134759;28;20229;-66
2022/10/23 03:32:47;;;;;;;7.90;5.17;;;;;;;15.62;52.37;99589.59;4125298;28;20255;-65
2022/10/23 03:34:49;;;;;;;12.40;4.20;;;;;;;14.99;53.10;99622.81;4126220;28;20692;-65
2022/10/23 03:36:50;;;;;;;10.27;4.07;;;;;;;15.24;53.17;99605.84;4121308;28;20248;-67
2022/10/23 03:38:52;;;;;;;11.60;4.10;;;;;;;14.89;54.28;99600.91;4131621;28;20902;-65
2022/10/23 03:40:54;;;;;;;8.30;4.30;;;;;;;15.59;52.53;99568.44;4124943;28;20265;-64
2022/10/23 03:42:55;;;;;;;7.03;3.57;;;;;;;15.59;52.74;99567.59;4111469;28;20592;-65
2022/10/23 03:44:57;;;;;;;7.90;4.00;;;;;;;15.85;52.24;99563.81;4127487;28;20834;-68
2022/10/23 03:46:59;;;;;;;6.73;4.33;;;;;;;17.93;48.17;99529.84;4158699;28;20235;-69
2022/10/23 03:49:01;;;;;;;7.90;3.93;;;;;;;17.77;48.54;99558.50;4152140;28;20263;-68
2022/10/23 03:51:05;;;;;;;4.50;3.93;;;;;;;18.24;47.33;99565.69;4120327;28;20684;-66
2022/10/23 03:53:07;;;;;;;4.43;3.87;;;;;;;18.00;47.29;99603.66;4127887;28;20237;-66
2022/10/23 03:55:09;;;;;;;8.50;4.50;;;;;;;18.81;46.15;99573.81;4125639;28;20257;-66
2022/10/23 03:57:11;;;;;;;9.47;4.00;;;;;;;18.36;46.24;99600.88;4125970;28;20239;-66
2022/10/23 03:59:13;;;;;;;8.27;4.37;;;;;;;17.73;47.25;99660.13;4128111;28;20275;-66
2022/10/23 04:01:15;;;;;;;6.80;4.10;;;;;;;18.30;46.53;99610.78;4128626;28;20264;-66
2022/10/23 04:03:17;;;;;;;5.60;3.57;;;;;;;17.22;47.63;99688.63;4112986;28;20248;-66
2022/10/23 04:05:18;;;;;;;5.93;3.93;;;;;;;15.30;51.23;99683.97;4124540;28;20452;-66
2022/10/23 04:07:20;;;;;;;4.40;3.77;;;;;;;15.86;51.28;99658.03;4142734;28;20312;-66
2022/10/23 04:09:22;;;;;;;6.80;4.00;;;;;;;16.09;51.25;99634.94;4128255;28;20264;-66
2022/10/23 04:11:23;;;;;;;7.40;4.00;;;;;;;14.62;53.25;99668.38;4121675;28;20229;-66
2022/10/23 04:13:25;;;;;;;7.93;3.87;;;;;;;16.31;51.80;99586.75;4139205;28;20248;-65
2022/10/23 04:15:27;;;;;;;11.03;4.20;;;;;;;17.50;48.44;99572.47;4134496;28;20228;-66
2022/10/23 04:17:28;;;;;;;6.50;3.93;;;;;;;17.16;49.30;99595.75;4139201;28;20263;-67
2022/10/23 04:19:30;;;;;;;8.77;3.97;;;;;;;15.93;50.67;99671.44;4133558;28;21026;-66
2022/10/23 04:21:32;;;;;;;9.00;3.80;;;;;;;15.90;50.84;99663.78;4135786;28;20243;-66
2022/10/23 04:23:33;;;;;;;7.83;3.70;;;;;;;15.94;51.26;99632.59;4123512;28;20304;-66
2022/10/23 04:25:35;;;;;;;7.37;3.80;;;;;;;17.67;48.13;99602.38;4129544;28;20248;-66
2022/10/23 04:27:37;;;;;;;5.50;3.50;;;;;;;16.56;49.16;99689.25;4122615;28;20685;-66
2022/10/23 04:29:38;;;;;;;14.87;5.77;;;;;;;16.43;49.78;99671.34;4123777;28;20257;-66
2022/10/23 04:31:40;;;;;;;13.03;6.03;;;;;;;15.75;51.07;99683.03;4130050;28;20259;-66
2022/10/23 04:33:42;;;;;;;9.23;5.30;;;;;;;14.43;54.03;99688.97;4115884;28;20267;-65
2022/10/23 04:35:44;;;;;;;8.00;4.27;;;;;;;15.04;52.80;99641.84;4130375;28;20336;-65
2022/10/23 04:37:46;;;;;;;10.37;4.73;;;;;;;14.66;53.25;99664.22;4140143;28;20282;-67
2022/10/23 04:39:48;;;;;;;6.13;4.00;;;;;;;14.49;53.53;99665.72;4126454;28;20295;-66
2022/10/23 04:41:50;;;;;;;5.43;3.77;;;;;;;15.13;52.35;99631.63;4129848;28;20248;-66
2022/10/23 04:43:51;;;;;;;6.77;3.90;;;;;;;15.39;52.19;99606.34;4138590;28;20504;-66
2022/10/23 04:45:53;;;;;;;8.37;3.77;;;;;;;16.88;49.64;99553.94;4127623;28;20224;-68
2022/10/23 04:47:55;;;;;;;7.67;3.87;;;;;;;17.55;48.17;99563.66;4121698;28;20257;-67
2022/10/23 04:49:56;;;;;;;6.13;3.50;;;;;;;16.83;48.91;99607.03;4164251;28;20426;-64
2022/10/23 04:51:58;;;;;;;8.67;4.03;;;;;;;15.44;51.75;99643.44;4134970;28;20259;-65
2022/10/23 04:54:00;;;;;;;6.27;3.70;;;;;;;14.61;53.63;99638.97;4128596;28;20237;-65
2022/10/23 04:56:01;;;;;;;9.13;3.80;;;;;;;14.64;53.32;99623.19;4128263;28;20240;-66
2022/10/23 04:58:03;;;;;;;10.37;4.23;;;;;;;15.07;52.42;99617.16;4135231;28;20241;-66
2022/10/23 05:00:08;;;;;;;10.07;4.53;;;;;;;14.40;53.67;99646.31;4123942;28;20244;-66
2022/10/23 05:02:10;;;;;;;6.50;3.80;;;;;;;14.55;53.16;99637.97;4131088;28;20223;-66
2022/10/23 05:04:12;;;;;;;8.53;4.23;;;;;;;14.42;53.66;99649.59;4124428;28;20676;-66
2022/10/23 05:06:14;;;;;;;9.00;4.63;;;;;;;15.35;51.86;99607.81;4119890;28;20217;-68
2022/10/23 05:08:16;;;;;;;10.33;4.50;;;;;;;17.47;48.33;99564.00;4131803;28;20695;-66
2022/10/23 05:10:18;;;;;;;8.47;4.23;;;;;;;17.62;47.79;99577.88;4161318;28;20236;-65
2022/10/23 05:12:20;;;;;;;6.30;3.30;;;;;;;16.09;49.45;99672.72;4135958;28;20255;-66
2022/10/23 05:14:22;;;;;;;7.17;4.10;;;;;;;15.17;51.66;99667.06;4133429;28;20243;-66
2022/10/23 05:16:49;;;;;;;6.43;3.57;;;;;;;15.36;51.62;99641.84;4124746;28;20259;-66
2022/10/23 05:18:50;;;;;;;8.40;3.70;;;;;;;13.75;54.97;99654.28;4123134;28;20644;-67
2022/10/23 05:20:58;;;;;;;9.40;4.47;;;;;;;14.15;54.23;99628.16;4135912;28;20294;-66
2022/10/23 05:23:01;;;;;;;5.53;3.90;;;;;;;14.26;54.45;99604.34;4129632;28;20269;-65
2022/10/23 05:25:04;;;;;;;8.10;4.17;;;;;;;16.13;50.99;99538.13;4123042;28;20256;-66
2022/10/23 05:27:05;;;;;;;5.13;4.20;;;;;;;16.41;49.68;99545.69;4115016;28;20256;-66
2022/10/23 05:29:07;;;;;;;8.00;4.17;;;;;;;15.67;50.41;99634.75;4130116;28;20237;-66
2022/10/23 05:31:09;;;;;;;5.93;3.77;;;;;;;15.08;52.11;99599.13;4121300;28;20260;-66
2022/10/23 05:33:11;;;;;;;8.57;3.70;;;;;;;14.68;52.06;99640.59;4131125;28;20283;-66
2022/10/23 05:35:20;;;;;;;5.27;3.47;;;;;;;14.33;52.90;99629.38;4140644;28;20224;-66
2022/10/23 05:37:23;;;;;;;6.60;4.13;;;;;;;14.37;53.65;99614.44;4154489;28;20220;-66
2022/10/23 05:39:24;;;;;;;5.17;3.73;;;;;;;14.35;53.46;99605.75;4122781;28;20260;-68
2022/10/23 05:41:26;;;;;;;7.83;3.93;;;;;;;14.13;53.38;99608.72;4089621;28;20304;-66
2022/10/23 05:43:30;;;;;;;9.53;4.63;;;;;;;14.06;53.94;99607.06;4133449;28;20232;-68
2022/10/23 05:45:31;;;;;;;7.80;3.87;;;;;;;12.91;55.72;99632.31;4140100;28;20266;-65
2022/10/23 05:47:33;;;;;;;9.17;4.70;;;;;;;13.22;56.38;99607.56;4128461;28;20258;-68
2022/10/23 05:49:35;;;;;;;8.77;4.10;;;;;;;13.29;55.59;99592.31;4138064;28;20290;-66
2022/10/23 05:51:38;;;;;;;10.63;4.10;;;;;;;12.96;56.26;99597.63;4138793;28;20680;-68
2022/10/23 05:53:40;;;;;;;8.90;4.07;;;;;;;13.10;55.87;99585.84;4134682;28;20330;-68
2022/10/23 05:55:43;;;;;;;7.87;4.40;;;;;;;14.34;54.26;99513.41;4140024;28;20264;-68
2022/10/23 05:57:44;;;;;;;10.67;4.30;;;;;;;14.49;53.26;99523.88;4127230;28;20887;-67
2022/10/23 05:59:46;;;;;;;7.70;3.90;;;;;;;14.02;53.61;99561.75;4160518;28;20239;-66
2022/10/23 06:01:48;;;;;;;6.97;4.20;;;;;;;15.08;52.11;99526.38;4106511;28;20268;-65
2022/10/23 06:03:50;;;;;;;9.50;4.00;;;;;;;16.77;48.50;99530.44;4121461;28;20234;-65
2022/10/23 06:05:52;;;;;;;5.60;3.57;;;;;;;16.04;49.79;99545.72;4119001;28;20267;-66
2022/10/23 06:07:59;;;;;;;9.07;3.80;;;;;;;15.69;50.36;99557.97;4126764;28;20433;-66
2022/10/23 06:10:02;;;;;;;6.03;3.47;;;;;;;16.92;47.96;99548.88;4134839;28;20266;-65
2022/10/23 06:12:03;;;;;;;4.97;3.10;;;;;;;17.43;46.95;99539.31;4136304;28;20252;-66
2022/10/23 06:14:06;;;;;;;8.40;3.63;;;;;;;15.72;49.79;99632.19;4132480;28;20525;-66
2022/10/23 06:16:18;;;;;;;4.77;3.37;;;;;;;16.69;48.83;99539.69;4131084;28;20251;-66
2022/10/23 06:18:20;;;;;;;8.37;4.00;;;;;;;16.07;49.10;99599.25;4128045;28;20295;-66
2022/10/23 06:20:21;;;;;;;5.73;3.70;;;;;;;17.26;47.58;99532.97;4124527;28;20258;-66
2022/10/23 06:22:29;;;;;;;6.70;3.60;;;;;;;17.25;47.29;99558.38;4131781;28;20264;-66
2022/10/23 06:24:30;;;;;;;8.63;3.80;;;;;;;16.66;47.39;99629.28;4151582;28;20228;-66
2022/10/23 06:26:32;;;;;;;10.47;5.63;;;;;;;16.07;48.77;99648.66;4108816;28;20741;-66
2022/10/23 06:28:34;;;;;;;12.37;8.97;;;;;;;17.23;47.66;99563.19;4131139;28;20263;-67
2022/10/23 06:30:38;;;;;;;10.90;6.50;;;;;;;16.18;48.24;99644.41;4131069;28;20263;-66
2022/10/23 06:32:40;;;;;;;8.63;4.23;;;;;;;14.98;50.62;99652.66;4125399;28;20240;-66
2022/10/23 06:34:42;;;;;;;7.57;3.90;;;;;;;14.36;52.23;99651.28;4131680;28;20232;-69
2022/10/23 06:36:44;;;;;;;8.23;4.03;;;;;;;16.05;49.90;99574.38;4123767;28;20236;-66
2022/10/23 06:38:46;;;;;;;9.73;4.10;;;;;;;15.19;50.52;99625.38;4103531;28;20355;-67
2022/10/23 06:40:55;;;;;;;8.40;3.63;;;;;;;14.37;52.53;99638.66;4122595;28;20242;-66
2022/10/23 06:42:56;;;;;;;6.60;4.30;;;;;;;14.33;52.45;99622.09;4131881;28;20240;-66
2022/10/23 06:44:58;;;;;;;5.23;4.20;;;;;;;15.30;51.24;99569.91;4129472;28;20261;-65
2022/10/23 06:47:09;;;;;;;8.07;4.60;;;;;;;14.77;52.78;99592.69;4126687;28;20488;-66
2022/10/23 06:49:11;;;;;;;7.57;5.27;;;;;;;14.40;53.29;99611.31;4134595;28;20322;-66
2022/10/23 06:51:16;;;;;;;9.47;5.00;;;;;;;14.29;53.04;99610.13;4133829;28;20259;-65
2022/10/23 06:53:17;;;;;;;8.93;4.50;;;;;;;14.37;53.20;99584.81;4125274;28;20252;-66
2022/10/23 06:55:19;;;;;;;7.20;4.60;;;;;;;14.34;53.33;99588.78;4117460;28;20243;-66
2022/10/23 06:57:20;;;;;;;13.10;4.80;;;;;;;15.83;50.59;99539.75;4133402;28;20263;-66
2022/10/23 06:59:22;;;;;;;6.00;4.63;;;;;;;15.81;50.50;99552.66;4135211;28;20267;-68
2022/10/23 07:01:24;;;;;;;5.97;4.40;;;;;;;17.31;48.22;99543.94;4118847;28;20229;-66
2022/10/23 07:03:27;;;;;;;9.80;5.33;;;;;;;16.81;47.96;99593.75;4113933;28;20247;-66
2022/10/23 07:05:28;;;;;;;6.53;4.97;;;;;;;15.66;50.51;99646.59;4121755;28;20580;-67
2022/10/23 07:07:30;;;;;;;9.00;4.70;;;;;;;16.69;48.85;99584.78;4127414;28;20259;-66
2022/10/23 07:09:35;;;;;;;8.93;4.80;;;;;;;15.46;50.98;99665.63;4139464;28;20241;-66
2022/10/23 07:11:36;;;;;;;7.07;4.50;;;;;;;14.92;52.55;99644.41;4104715;28;20332;-66
2022/10/23 07:13:39;;;;;;;8.77;5.03;;;;;;;14.52;53.63;99657.22;4132490;28;20790;-66
2022/10/23 07:15:41;;;;;;;6.20;4.77;;;;;;;13.92;55.07;99657.38;4133102;28;20240;-66
2022/10/23 07:17:42;;;;;;;6.53;4.63;;;;;;;14.06;54.92;99621.38;4119838;28;20287;-66
2022/10/23 07:19:45;;;;;;;9.70;5.10;;;;;;;14.39;54.76;99607.81;4117071;28;20409;-68
2022/10/23 07:21:47;;;;;;;6.77;5.10;;;;;;;14.35;54.66;99614.63;4130852;28;20243;-68
2022/10/23 07:23:49;;;;;;;9.10;5.10;;;;;;;14.27;54.60;99612.19;4129251;28;20264;-68
2022/10/23 07:25:51;;;;;;;7.73;5.30;;;;;;;14.83;53.65;99580.22;4101782;28;20284;-66
2022/10/23 07:27:54;;;;;;;9.47;5.10;;;;;;;16.81;49.05;99583.75;4112007;28;20256;-65
2022/10/23 07:29:56;;;;;;;9.00;4.67;;;;;;;17.71;48.04;99554.00;4131812;28;20243;-66
2022/10/23 07:32:01;;;;;;;12.73;4.97;;;;;;;17.18;48.47;99574.72;4151140;28;20275;-66
2022/10/23 07:34:03;;;;;;;9.03;4.87;;;;;;;15.06;52.22;99669.41;4123244;28;20414;-65
2022/10/23 07:36:07;;;;;;;8.40;5.30;;;;;;;14.98;53.40;99641.91;4127302;28;20316;-66
2022/10/23 07:38:09;;;;;;;10.87;5.30;;;;;;;14.23;54.75;99651.34;4134607;28;20227;-66
2022/10/23 07:40:11;;;;;;;11.40;5.20;;;;;;;15.51;53.50;99557.91;4130508;28;20908;-66
2022/10/23 07:42:13;;;;;;;7.80;4.90;;;;;;;14.86;53.68;99615.63;4133769;28;20254;-66
2022/10/23 07:44:14;;;;;;;8.37;4.90;;;;;;;15.63;52.94;99536.47;4137059;28;20312;-66
2022/10/23 07:46:16;;;;;;;6.47;4.73;;;;;;;14.39;54.38;99628.50;4128782;28;20315;-66
2022/10/23 07:48:19;;;;;;;9.23;5.00;;;;;;;14.92;53.28;99597.81;4123985;28;20239;-66
2022/10/23 07:50:21;;;;;;;6.13;5.13;;;;;;;15.83;51.96;99537.06;4131823;28;20509;-66
2022/10/23 07:52:23;;;;;;;11.60;5.00;;;;;;;15.27;52.58;99602.72;4150350;28;20235;-66
2022/10/23 07:54:24;;;;;;;6.73;4.63;;;;;;;15.39;52.98;99563.22;4134231;28;20734;-66
2022/10/23 07:56:30;;;;;;;6.40;5.00;;;;;;;14.50;53.95;99622.44;4133948;28;20258;-69
2022/10/23 07:58:32;;;;;;;8.10;4.93;;;;;;;15.31;53.02;99575.09;4122425;28;20242;-66
2022/10/23 08:00:33;;;;;;;11.43;4.47;;;;;;;14.96;53.48;99601.69;4112135;28;20319;-71
2022/10/23 08:02:36;;;;;;;7.00;4.50;;;;;;;15.39;52.91;99570.47;4110856;28;20316;-68
2022/10/23 08:04:38;;;;;;;12.30;4.80;;;;;;;15.38;52.97;99563.44;4101703;28;20253;-68
2022/10/23 08:06:40;;;;;;;6.40;4.30;;;;;;;15.21;53.34;99584.72;4129219;28;20259;-63
2022/10/23 08:08:41;;;;;;;10.63;4.73;;;;;;;14.95;53.83;99603.56;4136676;28;20448;-65
2022/10/23 08:10:45;;;;;;;9.83;4.63;;;;;;;15.19;53.56;99593.03;4115920;28;20246;-64
2022/10/23 08:12:47;;;;;;;11.10;4.73;;;;;;;15.19;53.86;99589.53;4137949;28;20521;-64
2022/10/23 08:14:48;;;;;;;8.10;4.80;;;;;;;15.11;54.34;99596.00;4153839;28;20232;-65
2022/10/23 08:16:50;;;;;;;8.30;5.10;;;;;;;15.14;53.50;99619.81;4117320;28;20340;-65
2022/10/23 08:18:52;;;;;;;7.27;4.97;;;;;;;15.26;54.13;99595.69;4130333;28;20286;-64
2022/10/23 08:20:59;;;;;;;6.80;4.43;;;;;;;15.70;53.05;99589.25;4136625;28;20316;-64
2022/10/23 08:23:01;;;;;;;8.87;5.10;;;;;;;15.34;53.79;99600.78;4106554;28;20240;-69
2022/10/23 08:25:03;;;;;;;10.53;4.43;;;;;;;15.81;53.18;99563.44;4123174;28;20226;-63
2022/10/23 08:27:04;;;;;;;9.80;4.93;;;;;;;15.68;53.70;99588.66;4133495;28;20746;-64
2022/10/23 08:29:06;;;;;;;7.80;4.70;;;;;;;15.46;54.74;99595.50;4130006;28;20769;-63
2022/10/23 08:31:16;;;;;;;8.03;4.73;;;;;;;16.98;51.81;99545.28;4133315;28;20254;-64
2022/10/23 08:33:17;;;;;;;8.70;4.90;;;;;;;17.20;50.98;99552.84;4138852;28;20792;-63
2022/10/23 08:35:19;;;;;;;7.83;4.40;;;;;;;18.02;49.84;99531.13;4128472;28;21023;-63
2022/10/23 08:37:21;;;;;;;10.57;4.57;;;;;;;17.53;50.33;99560.38;4125917;28;20228;-63
2022/10/23 08:39:22;;;;;;;5.67;4.27;;;;;;;17.42;50.16;99582.84;4158248;28;20328;-62
2022/10/23 08:41:27;;;;;;;8.67;4.97;;;;;;;18.93;48.33;99534.97;4135204;28;20238;-63
2022/10/23 08:43:36;;;;;;;7.53;4.00;;;;;;;18.32;49.29;99565.31;4135109;28;20242;-63
2022/10/23 08:45:47;;;;;;;6.23;3.90;;;;;;;19.72;46.70;99507.69;4135681;28;20853;-64
2022/10/23 08:47:54;;;;;;;6.40;3.60;;;;;;;19.77;45.65;99498.75;4136206;28;20231;-64
2022/10/23 08:50:01;;;;;;;6.33;4.10;;;;;;;18.17;48.29;99594.75;4118882;28;20302;-64
2022/10/23 08:52:25;;;;;;;5.17;3.90;;;;;;;18.43;48.95;99550.88;4123088;28;20296;-63
2022/10/23 08:54:41;;;;;;;8.40;3.73;;;;;;;18.79;47.86;99531.72;4129338;28;20243;-64
2022/10/23 08:56:48;;;;;;;6.00;4.23;;;;;;;18.44;49.47;99552.53;4122041;28;20304;-63
2022/10/23 08:58:56;;;;;;;5.37;3.67;;;;;;;17.96;49.82;99564.56;4129601;28;20693;-63
2022/10/23 09:00:58;;;;;;;6.47;3.83;;;;;;;18.34;49.79;99514.44;4124369;28;20843;-63
2022/10/23 09:03:03;;;;;;;10.50;3.83;;;;;;;20.20;46.67;99461.00;4133931;28;20245;-63
2022/10/23 09:05:12;;;;;;;4.10;3.50;;;;;;;19.30;47.51;99518.19;4134564;28;20332;-64
2022/10/23 09:07:49;;;;;;;8.30;3.67;;;;;;;19.27;47.16;99505.13;4126536;28;20242;-63
2022/10/23 09:10:16;;;;;;;7.80;3.20;;;;;;;19.89;46.21;99482.34;4126206;28;20268;-63
2022/10/23 09:12:23;;;;;;;7.77;3.47;;;;;;;19.94;46.51;99502.25;4117494;28;20225;-62
2022/10/23 09:14:30;;;;;;;9.10;3.40;;;;;;;20.08;46.23;99483.66;4117568;28;20243;-65
2022/10/23 09:16:51;;;;;;;4.70;3.33;;;;;;;20.09;46.18;99484.47;4118744;28;20315;-63
2022/10/23 09:18:54;;;;;;;6.20;3.90;;;;;;;19.16;48.84;99540.22;4133702;28;20747;-63
2022/10/23 09:20:56;;;;;;;5.73;3.77;;;;;;;20.39;46.39;99464.16;4137062;28;20342;-63
2022/10/23 09:23:02;;;;;;;5.23;3.90;;;;;;;20.62;46.32;99454.84;4136254;28;20642;-66
2022/10/23 09:25:09;;;;;;;7.50;3.60;;;;;;;19.22;48.24;99533.00;4130385;28;20683;-64
2022/10/23 09:27:16;;;;;;;9.17;4.20;;;;;;;18.10;49.99;99581.34;4128373;28;20245;-64
2022/10/23 09:29:28;;;;;;;8.63;4.20;;;;;;;20.80;47.04;99445.47;4118378;28;20261;-63
2022/10/23 09:31:30;;;;;;;6.20;3.80;;;;;;;20.34;46.34;99455.94;4115629;28;20224;-65
2022/10/23 09:33:33;;;;;;;10.33;3.70;;;;;;;19.02;48.54;99541.63;4159640;28;20307;-62
2022/10/23 09:35:35;;;;;;;25.13;21.13;;;;;;;19.76;48.05;99486.28;4131550;28;20291;-64
2022/10/23 09:37:45;;;;;;;9.47;4.70;;;;;;;19.85;47.29;99476.59;4127139;28;20642;-62
2022/10/23 09:39:47;;;;;;;10.60;7.57;;;;;;;20.74;46.27;99443.78;4112294;28;20291;-62
2022/10/23 09:41:49;;;;;;;5.97;4.20;;;;;;;20.00;47.36;99472.44;4112377;28;20248;-62
2022/10/23 09:44:18;;;;;;;4.00;3.60;;;;;;;19.47;47.54;99496.44;4112059;28;20236;-65
2022/10/23 09:46:20;;;;;;;5.60;3.60;;;;;;;19.16;48.59;99515.81;4121563;28;20307;-66
2022/10/23 09:48:22;;;;;;;4.83;3.30;;;;;;;19.56;47.52;99503.13;4117329;28;20308;-65